Aviation Digital Data Service (ADDS)

Output produced by METARs form (1443 UTC 20 September 2017)
found at http://www.aviationweather.gov/adds/metars/
 
UTAA 201400Z 08003KT 020V100 9999 NSC 30/01 Q1014 NOSIG
TAF UTAA 201030Z 2012/2112 02016KT 5000 SKC 530009 
     BECMG 2016/2018 VRB04KT 
     TEMPO 2018/2102 20014KT 2000 HZ 
     BECMG 2102/2104 02016KT
       
UTAA 201400Z 08003KT 020V100 9999 NSC 30/01 Q1014 NOSIG
TAF UTAA 201030Z 2012/2112 02016KT 5000 SKC 530009 
     BECMG 2016/2018 VRB04KT 
     TEMPO 2018/2102 20014KT 2000 HZ 
     BECMG 2102/2104 02016KT
       
UTAK 201400Z 33010KT CAVOK 32/01 Q1014 NOSIG
TAF UTAK 201030Z 2012/2112 09016KT CAVOK 530009 
     TEMPO 2012/2015 27016KT 
     TEMPO 2015/2020 32016KT 
     TEMPO 2020/2103 03016KT
       
UTAM 201400Z 34006KT CAVOK 30/04 Q1012 NOSIG
TAF UTAM 201030Z 2012/2112 36012KT 6000 SKC 530007 
     BECMG 2104/2106 33016G26KT 
     TEMPO 2106/2114 3000 DRDU
       
UTAT 201400Z 01008KT CAVOK 27/06 Q1016 NOSIG
TAF UTAT 201038Z 2012/2112 01012KT CAVOK 530005 
     TEMPO 2107/2112 07012G22KT
       
UTAV 201400Z 35004KT 7000 SKC 26/07 Q1011 NOSIG
TAF UTAV 201030Z 2012/2112 32012KT 5000 SKC 530005 
     TEMPO 2012/2018 02014KT
       
UTDD 201430Z VRB02MPS 9999 NSC 24/06 Q1013 R09/D NOSIG RMK QFE692/0922
TAF UTDD 201200Z 2013/2101 VRB02MPS 6000 FEW066 SCT150 
     TEMPO 2013/2019 27007MPS
       
UTDK 201430Z 00000MPS 9999 NSC 25/07 Q1013 R01/09//70 RMK QFE702/0936
TAF UTDK 201200Z 2013/2022 03005MPS 6000 FEW066 SCT150 
     TEMPO 2013/2019 21006MPS
       
UTDL 201430Z 24006MPS 9999 FEW230 24/07 Q1012 88CLRD70 NOSIG RMK QFE721/0962
TAF UTDL 201200Z 2013/2022 23005MPS 9999 NSC 
     TEMPO 2018/2022 VRB03MPS
       
UTDT 201430Z 15003MPS 9999 SCT150 25/07 Q1010 35////// RMK QFE718/0958
TAF UTDT 201200Z 2013/2022 VRB02MPS 9000 FEW066 SCT150 
     TEMPO 2013/2019 20006MPS
       
UTFA 201400Z 11003KT 7000 FEE050TCU 20/12 Q1011 R88/09//70
TAF UTFA 201200Z 2013/2022 04008KT 9999 NSC 
     TEMPO 2013/2019 25010KT 6000 FEW060CB
       
UTFF 201100Z 30006KT 280V350 9999 NSC 30/02 Q1011 R18/CLRD70
TAF UTFF 200900Z 2010/2019 15008KT 9999 FEW060CB 
     TEMPO 2010/2019 29010KT 6000 SCT060CB
       
UTFN 201400Z VRB02KT 9000 NSC FEW050CB 24/12 Q1010 R28/CLRD70 NOSIG
TAF UTFN 201100Z 2012/2112 35008KT 9999 FEW050CB 
     TEMPO 2012/2024 21010KT 7000 SCT050CB
       
UTNN 201430Z 01006KT CAVOK 25/04 Q1017 R33/CLRD60 NOSIG
TAF UTNN 201100Z 2012/2112 08012G22KT CAVOK 
     TEMPO 2018/2102 VRB04KT
       
UTNU 201430Z 36004KT 8000 NSC 24/09 Q1015 R31/CLRD70 NOSIG
TAF UTNU 201100Z 2012/2112 03012G22KT 8000 NSC 
     TEMPO 2012/2018 35010KT
       
UTSA 201430Z 02004KT 9999 NSC 27/01 Q1012 R07/CLRD70 NOSIG
TAF UTSA 201101Z 2012/2112 VRB03KT 7000 NSC 
     TEMPO 2012/2022 02014G24KT
       
UTSB 201430Z 33008KT CAVOK 28/05 Q1012 R01/CLRD70 NOSIG
TAF UTSB 201100Z 2012/2112 36010KT 7000 NSC 
     TEMPO 2012/2022 02014G24KT
       
UTSK 201430Z 16002KT CAVOK 29/05 Q1011 R16/CLRD70
TAF UTSK 201158Z 2013/2022 25010G20KT CAVOK
       
UTSS 201430Z 13006KT 100V170 6000 NSC 23/02 Q1014 R09/CLRD70 NOSIG
TAF UTSS 201100Z 2012/2112 11010G20KT 9999 NSC 
     TEMPO 2012/2016 07016G26KT
       
UTST 201430Z 23004KT CAVOK 24/06 Q1010 R88/CLRD70 NOSIG
TAF UTST 201100Z 2012/2112 VRB06KT 6000 NSC 
     TEMPO 2012/2023 28010G20KT
       
UTTT 201430Z 19004KT 4000 FU NSC 25/10 Q1012 R08R/CLRD70 NOSIG
TAF UTTT 201100Z 2012/2112 06012KT 7000 NSC
       
UTAT 201400Z 01008KT CAVOK 27/06 Q1016 NOSIG
TAF UTAT 201038Z 2012/2112 01012KT CAVOK 530005 
     TEMPO 2107/2112 07012G22KT
       
UTAM 201400Z 34006KT CAVOK 30/04 Q1012 NOSIG
TAF UTAM 201030Z 2012/2112 36012KT 6000 SKC 530007 
     BECMG 2104/2106 33016G26KT 
     TEMPO 2106/2114 3000 DRDU
       
UTAV 201400Z 35004KT 7000 SKC 26/07 Q1011 NOSIG
TAF UTAV 201030Z 2012/2112 32012KT 5000 SKC 530005 
     TEMPO 2012/2018 02014KT
       
UTAK 201400Z 33010KT CAVOK 32/01 Q1014 NOSIG
TAF UTAK 201030Z 2012/2112 09016KT CAVOK 530009 
     TEMPO 2012/2015 27016KT 
     TEMPO 2015/2020 32016KT 
     TEMPO 2020/2103 03016KT